aviador You're here:

MMMX Decoded Metar

MEXICO CITY in MEXICO
Report Time2017-12-11 04:54:00
UTC Time2017-12-11 05:34:38
Flight Rules vfr VFR
Wind310° at 07 kt
W.Decomp.*RWY 23: 1.9 kt HW 6.7 kt RCW
W.Rank310° ranks 19
Current wind is above 310° avg. (6.2)
Visibility9999 m
Phenomena:N/A
Clouds:N/A
Expected CloudBase > 6,000 ft AGL from Temp-Dew spread
CeilingNone
Temp08°C (ISA +8)
Dew Point-7°C (34% RH)
AAT2.7°C
QNH1033 hPa
Density Alt7,621 ft
Elevation7,343 ft
Report Wrong Elevation
Raw Report
MMMX 110454Z 31007KT 12SM SKC 08/M07 A3051 NOSIG RMK CI=

Extra information for MMMX:More info

Metar Taf Metar & Taf Last 4 Metars F.Rules Stats Wind Profile Meteogram Temp Stats Airport Information Weather charts Add Link Nearby VenuesMetar ALERT Operation Metar Decoded Social comments